Time;durP1;ratioP1;P1;durP2;ratioP2;P2;SDS_P1;SDS_P2;PMS_P1;PMS_P2;Temp;Humidity;BMP_temperature;BMP_pressure;BME280_temperature;BME280_humidity;BME280_pressure;Samples;Min_cycle;Max_cycle;Signal;HPM_P1;HPM_P2
2023/05/23 00:01:41;;;;;;;9.73;6.87;;;18.80;99.90;;;;;;5096337;28;20193;-83
2023/05/23 00:04:08;;;;;;;8.23;6.47;;;18.80;99.90;;;;;;5096234;28;20469;-79
2023/05/23 00:06:35;;;;;;;8.70;7.90;;;18.70;99.90;;;;;;5114431;28;20440;-79
2023/05/23 00:09:01;;;;;;;8.50;7.07;;;18.60;99.90;;;;;;5114471;28;20410;-83
2023/05/23 00:11:27;;;;;;;7.10;6.40;;;18.60;99.90;;;;;;5113863;28;20438;-83
2023/05/23 00:13:54;;;;;;;8.63;6.57;;;18.70;99.90;;;;;;5114390;28;20417;-79
2023/05/23 00:16:21;;;;;;;13.57;7.20;;;18.70;99.90;;;;;;5095947;28;20532;-83
2023/05/23 00:18:49;;;;;;;8.30;7.13;;;18.60;99.90;;;;;;5114378;28;20397;-83
2023/05/23 00:21:15;;;;;;;9.17;7.40;;;18.60;99.90;;;;;;5114396;28;20964;-83
2023/05/23 00:23:42;;;;;;;9.57;7.73;;;18.60;99.90;;;;;;5096012;28;20836;-79
2023/05/23 00:26:08;;;;;;;8.23;6.13;;;18.60;99.90;;;;;;5114492;28;20853;-83
2023/05/23 00:28:34;;;;;;;9.33;7.00;;;18.50;99.90;;;;;;5095945;28;20944;-79
2023/05/23 00:31:00;;;;;;;7.10;6.40;;;18.50;99.90;;;;;;5095842;28;20447;-79
2023/05/23 00:33:25;;;;;;;8.13;7.30;;;18.40;99.90;;;;;;5114347;28;20549;-79
2023/05/23 00:35:51;;;;;;;7.97;7.17;;;18.40;99.90;;;;;;5114221;28;20211;-79
2023/05/23 00:38:17;;;;;;;8.90;7.10;;;18.30;99.90;;;;;;5096239;28;20168;-79
2023/05/23 00:40:43;;;;;;;7.87;6.80;;;18.30;99.90;;;;;;5095723;28;20241;-79
2023/05/23 00:43:08;;;;;;;11.07;7.67;;;18.40;99.90;;;;;;5095760;28;20853;-81
2023/05/23 00:45:34;;;;;;;12.33;7.17;;;18.40;99.90;;;;;;5113984;28;20538;-83
2023/05/23 00:48:01;;;;;;;10.37;7.63;;;18.40;99.90;;;;;;5096036;28;20173;-79
2023/05/23 00:50:28;;;;;;;8.70;7.37;;;18.40;99.90;;;;;;5095677;28;20445;-83
2023/05/23 00:52:55;;;;;;;8.13;7.03;;;18.40;99.90;;;;;;5113989;28;20557;-79
2023/05/23 00:55:23;;;;;;;8.07;6.90;;;18.40;99.90;;;;;;5114004;28;20939;-83
2023/05/23 00:57:49;;;;;;;9.97;7.50;;;18.40;99.90;;;;;;5095940;28;20440;-79
2023/05/23 01:00:15;;;;;;;13.20;7.30;;;18.30;99.90;;;;;;5113810;28;20420;-83
2023/05/23 01:02:46;;;;;;;7.97;7.17;;;18.40;99.90;;;;;;5114254;28;20472;-79
2023/05/23 01:05:16;;;;;;;8.97;7.80;;;18.30;99.90;;;;;;5113883;28;20413;-79
2023/05/23 01:07:47;;;;;;;10.80;7.57;;;18.20;99.90;;;;;;5114496;28;20425;-83
2023/05/23 01:10:15;;;;;;;9.70;7.20;;;18.00;99.90;;;;;;5095537;28;20428;-79
2023/05/23 01:12:58;;;;;;;8.67;7.80;;;18.00;99.90;;;;;;5095693;28;20434;-83
2023/05/23 01:16:01;;;;;;;8.27;7.00;;;18.10;99.90;;;;;;5113519;28;20417;-79
2023/05/23 01:18:53;;;;;;;7.97;6.73;;;18.20;99.90;;;;;;5095625;28;20464;-83
2023/05/23 01:21:22;;;;;;;8.63;7.63;;;18.10;99.90;;;;;;5095497;28;20460;-79
2023/05/23 01:24:42;;;;;;;10.20;8.47;;;18.10;99.90;;;;;;5099144;28;20554;-79
2023/05/23 01:27:20;;;;;;;10.10;7.77;;;18.10;99.90;;;;;;5117548;28;20484;-82
2023/05/23 01:29:50;;;;;;;8.60;7.70;;;18.10;99.90;;;;;;5117552;28;20806;-83
2023/05/23 01:32:17;;;;;;;10.77;7.77;;;18.00;99.90;;;;;;5099359;28;20864;-83
2023/05/23 01:34:44;;;;;;;11.70;8.20;;;18.00;99.90;;;;;;5117432;28;20423;-83
2023/05/23 01:37:13;;;;;;;12.20;8.93;;;17.90;99.90;;;;;;5099035;28;20431;-83
2023/05/23 01:39:39;;;;;;;12.17;7.83;;;17.70;99.90;;;;;;5099004;28;20423;-79
2023/05/23 01:42:05;;;;;;;11.17;8.83;;;17.70;99.90;;;;;;5117517;28;20427;-79
2023/05/23 01:44:33;;;;;;;8.50;7.60;;;17.60;99.90;;;;;;5117236;28;20257;-79
2023/05/23 01:47:00;;;;;;;11.30;7.00;;;17.60;99.90;;;;;;5117606;28;20909;-79
2023/05/23 01:49:26;;;;;;;8.60;7.57;;;17.60;99.90;;;;;;5098866;28;20416;-79
2023/05/23 01:51:52;;;;;;;15.53;7.50;;;17.50;99.90;;;;;;5117240;28;20434;-79
2023/05/23 01:54:19;;;;;;;11.47;8.67;;;17.50;99.90;;;;;;5117069;28;20430;-83
2023/05/23 01:56:44;;;;;;;10.00;8.70;;;17.40;99.90;;;;;;5098698;28;20444;-79
2023/05/23 01:59:11;;;;;;;11.00;8.60;;;17.50;99.90;;;;;;5116817;28;20458;-79
2023/05/23 02:01:37;;;;;;;8.67;7.77;;;17.60;99.90;;;;;;5117061;28;20192;-83
2023/05/23 02:04:03;;;;;;;10.23;8.03;;;17.70;99.90;;;;;;5098502;28;20554;-83
2023/05/23 02:06:30;;;;;;;16.00;8.50;;;17.70;99.90;;;;;;5116919;28;20452;-83
2023/05/23 02:08:56;;;;;;;8.60;7.80;;;17.70;99.90;;;;;;5098360;28;20416;-79
2023/05/23 02:11:21;;;;;;;9.27;8.13;;;17.80;99.90;;;;;;5117035;28;20459;-79
2023/05/23 02:13:47;;;;;;;8.47;7.53;;;17.70;99.90;;;;;;5098370;28;20316;-83
2023/05/23 02:16:13;;;;;;;10.53;7.90;;;17.70;99.90;;;;;;5098230;28;20239;-83
2023/05/23 02:18:39;;;;;;;10.00;7.60;;;17.70;99.90;;;;;;5116565;28;20709;-79
2023/05/23 02:21:05;;;;;;;9.20;8.10;;;17.70;99.90;;;;;;5116797;28;20204;-79
2023/05/23 02:23:30;;;;;;;9.77;7.60;;;17.70;99.90;;;;;;5116499;28;20204;-79
2023/05/23 02:25:56;;;;;;;11.03;8.00;;;17.70;99.90;;;;;;5116447;28;20454;-78
2023/05/23 02:28:22;;;;;;;10.20;8.50;;;17.70;99.90;;;;;;5098164;28;20541;-80
2023/05/23 02:30:47;;;;;;;11.97;8.57;;;17.70;99.90;;;;;;5097931;28;20207;-83
2023/05/23 02:33:13;;;;;;;10.03;9.03;;;17.80;99.90;;;;;;5116066;28;20762;-79
2023/05/23 02:35:39;;;;;;;9.97;8.87;;;17.90;99.90;;;;;;5115990;28;20187;-79
2023/05/23 02:38:04;;;;;;;10.50;9.10;;;17.80;99.90;;;;;;5116216;28;20660;-83
2023/05/23 02:40:30;;;;;;;11.00;8.87;;;17.80;99.90;;;;;;5097784;28;20543;-79
2023/05/23 02:42:56;;;;;;;9.50;8.33;;;17.60;99.90;;;;;;5116066;28;20251;-83
2023/05/23 02:45:22;;;;;;;9.77;8.87;;;17.60;99.90;;;;;;5097785;28;20196;-80
2023/05/23 02:47:48;;;;;;;9.80;8.40;;;17.60;99.90;;;;;;5115927;28;20416;-83
2023/05/23 02:50:14;;;;;;;11.00;8.53;;;17.60;99.90;;;;;;5097706;28;20512;-84
2023/05/23 02:52:41;;;;;;;10.70;9.03;;;17.50;99.90;;;;;;5097843;28;20206;-78
2023/05/23 02:55:07;;;;;;;10.13;8.93;;;17.50;99.90;;;;;;5097570;28;20436;-79
2023/05/23 02:57:33;;;;;;;11.73;8.70;;;17.50;99.90;;;;;;5097755;28;20819;-79
2023/05/23 02:59:59;;;;;;;9.63;8.40;;;17.40;99.90;;;;;;5115748;28;20424;-84
2023/05/23 03:02:24;;;;;;;10.00;9.00;;;17.50;99.90;;;;;;5115646;28;20600;-84
2023/05/23 03:04:50;;;;;;;12.30;9.50;;;17.50;99.90;;;;;;5097349;28;20171;-84
2023/05/23 03:07:16;;;;;;;9.63;8.67;;;17.50;99.90;;;;;;5097574;28;20207;-83
2023/05/23 03:09:41;;;;;;;9.70;8.70;;;17.50;99.90;;;;;;5115556;28;20211;-84
2023/05/23 03:12:07;;;;;;;10.97;9.13;;;17.40;99.90;;;;;;5097481;28;20678;-84
2023/05/23 03:14:33;;;;;;;12.80;9.97;;;17.40;99.90;;;;;;5097226;28;20176;-84
2023/05/23 03:16:59;;;;;;;15.70;8.87;;;17.50;99.90;;;;;;5115751;28;20238;-83
2023/05/23 03:19:25;;;;;;;12.10;8.77;;;17.50;99.90;;;;;;5097158;28;20259;-79
2023/05/23 03:21:51;;;;;;;14.73;9.13;;;17.50;99.90;;;;;;5097131;28;20475;-79
2023/05/23 03:24:17;;;;;;;10.70;9.60;;;17.60;99.90;;;;;;5115359;28;20561;-79
2023/05/23 03:26:43;;;;;;;10.50;8.97;;;17.70;99.90;;;;;;5097050;28;20460;-83
2023/05/23 03:29:09;;;;;;;13.40;9.77;;;17.70;99.90;;;;;;5115234;28;20440;-83
2023/05/23 03:31:36;;;;;;;13.37;8.80;;;17.70;99.90;;;;;;5096907;28;20456;-84
2023/05/23 03:34:04;;;;;;;11.97;8.97;;;17.70;99.90;;;;;;5096837;28;20741;-79
2023/05/23 03:36:32;;;;;;;14.90;9.70;;;17.70;99.90;;;;;;5115149;28;20440;-79
2023/05/23 03:38:57;;;;;;;13.53;11.33;;;17.60;99.90;;;;;;5114899;28;20399;-79
2023/05/23 03:41:23;;;;;;;11.17;10.00;;;17.50;99.90;;;;;;5115276;28;20455;-83
2023/05/23 03:43:49;;;;;;;11.37;10.23;;;17.50;99.90;;;;;;5114873;28;20304;-83
2023/05/23 03:46:15;;;;;;;11.67;9.93;;;17.40;99.90;;;;;;5114063;27;20228;-79
2023/05/23 03:48:40;;;;;;;13.77;9.53;;;17.30;99.90;;;;;;5114797;28;20656;-83
2023/05/23 03:51:06;;;;;;;13.60;10.07;;;17.20;99.90;;;;;;5114796;28;20210;-84
2023/05/23 03:53:31;;;;;;;12.33;9.87;;;17.10;99.90;;;;;;5113515;28;20175;-83
2023/05/23 03:55:57;;;;;;;12.47;10.17;;;17.10;99.90;;;;;;5113891;28;20200;-80
2023/05/23 03:58:23;;;;;;;11.07;9.90;;;17.20;99.90;;;;;;5096363;28;20221;-80
2023/05/23 04:00:48;;;;;;;13.00;10.80;;;17.30;99.90;;;;;;5096217;28;20203;-83
2023/05/23 04:03:16;;;;;;;13.57;11.00;;;17.30;99.90;;;;;;5114550;28;20668;-79
2023/05/23 04:05:42;;;;;;;11.07;9.93;;;17.30;99.90;;;;;;5096218;28;20257;-84
2023/05/23 04:08:08;;;;;;;12.43;11.10;;;17.40;99.90;;;;;;5096129;28;20977;-78
2023/05/23 04:10:34;;;;;;;14.47;11.60;;;17.40;99.90;;;;;;5096116;28;20424;-78
2023/05/23 04:13:00;;;;;;;12.20;10.30;;;17.40;99.90;;;;;;5114192;28;20400;-81
2023/05/23 04:15:26;;;;;;;14.73;11.00;;;17.50;99.90;;;;;;5095751;28;20672;-78
2023/05/23 04:17:52;;;;;;;12.90;10.87;;;17.50;99.90;;;;;;5095944;28;20194;-79
2023/05/23 04:20:18;;;;;;;13.00;10.67;;;17.60;99.90;;;;;;5113707;28;20416;-83
2023/05/23 04:22:44;;;;;;;11.17;10.07;;;17.70;99.90;;;;;;5094571;28;20710;-84
2023/05/23 04:25:09;;;;;;;11.80;10.40;;;17.80;99.90;;;;;;5112889;28;20527;-83
2023/05/23 04:27:38;;;;;;;14.33;10.57;;;17.80;99.90;;;;;;5113346;28;20624;-83
2023/05/23 04:30:07;;;;;;;13.60;11.67;;;17.90;99.90;;;;;;5125254;27;20673;-84
2023/05/23 04:32:32;;;;;;;12.13;10.40;;;17.90;99.90;;;;;;5132618;27;20431;-79
2023/05/23 04:35:01;;;;;;;14.70;11.07;;;18.00;99.90;;;;;;5097766;28;20448;-84
2023/05/23 04:37:27;;;;;;;11.77;10.57;;;18.00;99.90;;;;;;5111476;28;20421;-84
2023/05/23 04:39:52;;;;;;;12.77;10.97;;;18.00;99.90;;;;;;5095557;28;20572;-84
2023/05/23 04:42:23;;;;;;;14.40;10.70;;;18.00;99.90;;;;;;5132792;28;20541;-79
2023/05/23 04:44:56;;;;;;;14.67;11.33;;;18.10;99.90;;;;;;5115015;27;20194;-79
2023/05/23 04:47:23;;;;;;;16.00;12.57;;;18.10;99.90;;;;;;5131202;28;20450;-79
2023/05/23 04:49:49;;;;;;;13.20;11.27;;;18.10;99.90;;;;;;5124658;28;20431;-84
2023/05/23 04:52:17;;;;;;;13.10;11.27;;;18.10;99.90;;;;;;5108142;28;20469;-84
2023/05/23 04:54:45;;;;;;;15.27;12.83;;;18.20;99.90;;;;;;5108036;28;20515;-84
2023/05/23 04:57:11;;;;;;;17.60;11.50;;;18.20;99.90;;;;;;5105933;28;20463;-84
2023/05/23 04:59:37;;;;;;;12.80;11.47;;;18.30;99.90;;;;;;5125347;27;20440;-79
2023/05/23 05:02:04;;;;;;;13.53;12.10;;;18.40;99.90;;;;;;5095084;28;20433;-79
2023/05/23 05:04:30;;;;;;;14.53;11.60;;;18.40;99.90;;;;;;5096313;28;20952;-79
2023/05/23 05:06:56;;;;;;;14.87;12.80;;;18.50;99.90;;;;;;5094527;27;20464;-84
2023/05/23 05:09:22;;;;;;;15.30;12.73;;;18.50;99.90;;;;;;5093059;28;20175;-84
2023/05/23 05:11:47;;;;;;;15.07;12.07;;;18.60;99.90;;;;;;5094107;28;20539;-80
2023/05/23 05:14:13;;;;;;;17.57;12.60;;;18.60;99.90;;;;;;5108211;28;20488;-83
2023/05/23 05:16:39;;;;;;;15.73;12.23;;;18.60;99.90;;;;;;5113654;28;20235;-83
2023/05/23 05:19:05;;;;;;;15.03;13.00;;;18.70;99.90;;;;;;5094389;28;20221;-79
2023/05/23 05:21:30;;;;;;;18.67;13.00;;;18.70;99.90;;;;;;5095065;28;20533;-79
2023/05/23 05:23:58;;;;;;;15.50;13.37;;;18.70;99.90;;;;;;5109548;28;20212;-80
2023/05/23 05:26:25;;;;;;;16.20;13.83;;;18.80;99.90;;;;;;5107346;28;20211;-84
2023/05/23 05:28:52;;;;;;;16.27;12.90;;;18.90;99.90;;;;;;5093318;28;20532;-79
2023/05/23 05:31:17;;;;;;;16.43;13.70;;;18.90;99.90;;;;;;5096099;28;20554;-84
2023/05/23 05:33:44;;;;;;;18.90;14.73;;;18.90;99.90;;;;;;5113112;28;20596;-80
2023/05/23 05:36:10;;;;;;;18.67;13.20;;;19.00;99.90;;;;;;5129251;27;20295;-79
2023/05/23 05:38:36;;;;;;;18.47;14.67;;;19.20;99.90;;;;;;5112057;27;20500;-79
2023/05/23 05:41:02;;;;;;;17.40;14.17;;;19.30;99.90;;;;;;5113064;28;20890;-85
2023/05/23 05:43:28;;;;;;;17.97;14.30;;;19.40;99.90;;;;;;5114339;28;20458;-84
2023/05/23 05:45:53;;;;;;;16.33;13.83;;;19.40;99.90;;;;;;5096751;28;20465;-80
2023/05/23 05:48:19;;;;;;;18.50;14.50;;;19.50;99.90;;;;;;5095122;28;20181;-81
2023/05/23 05:50:45;;;;;;;16.47;14.37;;;19.50;99.90;;;;;;5106105;28;20557;-80
2023/05/23 05:53:12;;;;;;;15.10;13.10;;;19.60;99.90;;;;;;5093963;28;20189;-79
2023/05/23 05:55:37;;;;;;;17.00;14.43;;;19.60;99.90;;;;;;5112740;27;21026;-80
2023/05/23 05:58:03;;;;;;;17.60;14.17;;;19.80;99.90;;;;;;5091472;28;20423;-81
2023/05/23 06:00:29;;;;;;;20.20;14.40;;;19.90;99.90;;;;;;5113666;27;20270;-79
2023/05/23 06:02:56;;;;;;;15.37;13.70;;;19.90;99.90;;;;;;5113205;28;20864;-79
2023/05/23 06:05:22;;;;;;;14.90;13.37;;;19.90;99.90;;;;;;5097011;27;20207;-84
2023/05/23 06:07:51;;;;;;;14.60;13.10;;;20.00;99.90;;;;;;5097665;27;20433;-83
2023/05/23 06:10:17;;;;;;;18.93;14.27;;;20.00;99.90;;;;;;5113934;27;20435;-84
2023/05/23 06:12:44;;;;;;;16.13;14.40;;;20.10;99.90;;;;;;5091167;28;20530;-84
2023/05/23 06:15:10;;;;;;;17.73;13.93;;;20.20;99.90;;;;;;5099134;27;20451;-79
2023/05/23 06:17:36;;;;;;;17.43;14.43;;;20.30;99.90;;;;;;5111811;27;20505;-79
2023/05/23 06:20:03;;;;;;;16.33;14.73;;;20.40;99.90;;;;;;5086535;28;20238;-84
2023/05/23 06:22:29;;;;;;;15.90;14.23;;;20.40;99.90;;;;;;5093203;28;20484;-80
2023/05/23 06:24:54;;;;;;;18.03;14.60;;;20.50;99.90;;;;;;5108609;27;20538;-82
2023/05/23 06:27:20;;;;;;;18.67;15.60;;;20.60;99.90;;;;;;5108081;27;20202;-88
2023/05/23 06:29:46;;;;;;;18.20;14.70;;;20.70;99.90;;;;;;5101995;27;20870;-79
2023/05/23 06:32:11;;;;;;;20.37;15.53;;;20.80;99.90;;;;;;5125553;27;20191;-86
2023/05/23 06:34:37;;;;;;;15.93;14.10;;;21.00;99.90;;;;;;5125455;27;20176;-79
2023/05/23 06:37:02;;;;;;;14.13;12.37;;;21.10;99.90;;;;;;5106527;27;20533;-79
2023/05/23 06:39:28;;;;;;;15.37;13.63;;;21.20;99.90;;;;;;5094166;27;20178;-84
2023/05/23 06:41:54;;;;;;;15.30;13.77;;;21.40;99.90;;;;;;5090959;27;20300;-79
2023/05/23 06:44:20;;;;;;;17.33;13.90;;;21.40;99.90;;;;;;5103677;27;20210;-79
2023/05/23 06:46:46;;;;;;;17.07;15.30;;;21.50;99.90;;;;;;5106565;27;20459;-84
2023/05/23 06:49:12;;;;;;;16.10;14.50;;;21.60;99.90;;;;;;5087483;27;20180;-79
2023/05/23 06:51:38;;;;;;;16.53;13.83;;;21.60;99.90;;;;;;5107713;27;20448;-87
2023/05/23 06:54:04;;;;;;;18.40;14.60;;;21.60;99.90;;;;;;5088708;28;20435;-86
2023/05/23 06:56:30;;;;;;;18.30;13.40;;;21.70;99.90;;;;;;5107681;27;20959;-79
2023/05/23 06:58:55;;;;;;;14.97;13.37;;;21.80;99.90;;;;;;5110387;27;20442;-85
2023/05/23 07:01:21;;;;;;;259.90;159.23;;;22.00;99.90;;;;;;5108703;27;20204;-79
2023/05/23 07:03:47;;;;;;;19.40;15.10;;;22.00;99.90;;;;;;5107419;27;20675;-85
2023/05/23 07:06:13;;;;;;;15.37;13.83;;;22.10;99.90;;;;;;5089513;28;20306;-87
2023/05/23 07:08:39;;;;;;;12.90;11.67;;;22.20;99.90;;;;;;5106757;27;20553;-81
2023/05/23 07:11:05;;;;;;;13.20;11.90;;;22.30;99.90;;;;;;5089049;28;20223;-80
2023/05/23 07:13:31;;;;;;;15.60;12.60;;;22.50;99.90;;;;;;5101907;27;20420;-86
2023/05/23 07:15:57;;;;;;;14.40;11.60;;;22.50;99.90;;;;;;5122820;27;20811;-86
2023/05/23 07:18:23;;;;;;;14.53;10.80;;;22.60;99.90;;;;;;5090095;28;20435;-86
2023/05/23 07:20:49;;;;;;;14.00;12.60;;;22.70;99.90;;;;;;5107181;28;20214;-80
2023/05/23 07:23:15;;;;;;;12.57;11.37;;;22.80;99.90;;;;;;5108497;27;20471;-79
2023/05/23 07:25:41;;;;;;;12.43;11.23;;;22.80;99.90;;;;;;5111913;27;20519;-86
2023/05/23 07:28:08;;;;;;;12.97;11.57;;;22.90;99.90;;;;;;5091155;28;20199;-86
2023/05/23 07:30:34;;;;;;;12.27;11.07;;;23.00;99.90;;;;;;5105543;27;20451;-86
2023/05/23 07:33:00;;;;;;;14.83;13.27;;;23.10;99.90;;;;;;5106302;27;20495;-79
2023/05/23 07:35:26;;;;;;;14.53;11.17;;;23.10;99.90;;;;;;5109375;28;20207;-87
2023/05/23 07:37:52;;;;;;;13.53;12.13;;;23.10;99.90;;;;;;5093243;28;20429;-86
2023/05/23 07:40:18;;;;;;;15.20;11.77;;;23.30;99.90;;;;;;5109249;28;20978;-86
2023/05/23 07:42:44;;;;;;;16.97;12.73;;;23.30;99.90;;;;;;5109716;27;20469;-79
2023/05/23 07:45:10;;;;;;;20.17;13.00;;;23.40;99.90;;;;;;5090237;28;20265;-86
2023/05/23 07:47:36;;;;;;;13.93;12.53;;;23.40;99.90;;;;;;5096258;28;20444;-86
2023/05/23 07:50:02;;;;;;;15.17;13.47;;;23.30;99.90;;;;;;5090262;27;20520;-85
2023/05/23 07:52:30;;;;;;;14.00;11.90;;;23.50;99.90;;;;;;5091168;28;20188;-79
2023/05/23 07:54:55;;;;;;;12.23;11.13;;;23.50;99.90;;;;;;5105390;27;20465;-79
2023/05/23 07:57:23;;;;;;;12.90;11.70;;;23.60;99.90;;;;;;5090085;28;20520;-80
2023/05/23 07:59:49;;;;;;;10.80;9.70;;;23.60;99.90;;;;;;5109496;28;20185;-79
2023/05/23 08:02:14;;;;;;;11.27;10.17;;;23.70;99.90;;;;;;5091581;28;20478;-80
2023/05/23 08:04:40;;;;;;;13.47;12.20;;;23.80;99.90;;;;;;5088592;28;20497;-80
2023/05/23 08:07:07;;;;;;;14.33;12.53;;;23.80;99.90;;;;;;5090225;28;20180;-87
2023/05/23 08:09:33;;;;;;;12.70;10.27;;;23.80;99.90;;;;;;5103596;28;20570;-79
2023/05/23 08:11:59;;;;;;;12.10;10.90;;;23.80;99.90;;;;;;5090559;27;20436;-80
2023/05/23 08:14:24;;;;;;;12.60;11.30;;;23.90;99.90;;;;;;5103895;27;20190;-86
2023/05/23 08:16:50;;;;;;;14.27;11.20;;;23.90;99.90;;;;;;5084016;28;20704;-79
2023/05/23 08:19:16;;;;;;;12.87;9.83;;;24.10;99.90;;;;;;5114472;27;20522;-80
2023/05/23 08:21:42;;;;;;;10.77;9.60;;;24.20;99.90;;;;;;5081834;28;20232;-80
2023/05/23 08:24:08;;;;;;;9.23;8.20;;;24.30;99.90;;;;;;5083308;28;20209;-80
2023/05/23 08:26:35;;;;;;;7.47;6.80;;;24.30;99.90;;;;;;5084095;28;20466;-86
2023/05/23 08:29:01;;;;;;;9.40;8.40;;;24.40;99.90;;;;;;5084655;28;21112;-79
2023/05/23 08:31:31;;;;;;;10.33;8.87;;;24.40;99.90;;;;;;5086497;28;21019;-80
2023/05/23 08:33:58;;;;;;;9.80;8.80;;;24.60;99.90;;;;;;5082173;28;20468;-80
2023/05/23 08:36:23;;;;;;;8.90;7.70;;;24.60;99.90;;;;;;5086705;28;20888;-79
2023/05/23 08:38:51;;;;;;;7.77;7.03;;;24.70;99.90;;;;;;5086749;28;20441;-86
2023/05/23 08:41:21;;;;;;;7.60;6.90;;;24.80;99.90;;;;;;5082185;28;20297;-80
2023/05/23 08:43:47;;;;;;;7.53;6.93;;;24.80;99.90;;;;;;5087968;28;20498;-79
2023/05/23 08:46:14;;;;;;;7.93;7.17;;;24.90;99.90;;;;;;5086398;28;20476;-80
2023/05/23 08:48:41;;;;;;;9.27;7.70;;;25.00;99.90;;;;;;5088024;28;20470;-80
2023/05/23 08:51:11;;;;;;;8.00;7.30;;;25.10;99.90;;;;;;5084805;28;21182;-79
2023/05/23 08:53:41;;;;;;;9.60;7.93;;;25.20;99.90;;;;;;5086574;28;20467;-87
2023/05/23 08:56:08;;;;;;;9.93;7.77;;;25.30;99.90;;;;;;5090031;28;20452;-80
2023/05/23 08:58:34;;;;;;;8.20;7.50;;;25.40;99.90;;;;;;5087686;28;20461;-85
2023/05/23 09:01:00;;;;;;;8.70;7.37;;;25.40;99.90;;;;;;5085668;28;20875;-86
2023/05/23 09:03:27;;;;;;;9.23;8.37;;;25.40;99.90;;;;;;5089426;28;20555;-80
2023/05/23 09:05:56;;;;;;;9.17;8.27;;;25.50;99.90;;;;;;5090280;28;20496;-80
2023/05/23 09:08:25;;;;;;;9.10;8.20;;;25.50;99.90;;;;;;5081920;28;20501;-80
2023/05/23 09:10:52;;;;;;;8.53;7.63;;;25.60;99.90;;;;;;5091759;28;20464;-80
2023/05/23 09:13:19;;;;;;;8.73;7.80;;;25.60;99.90;;;;;;5080842;28;20461;-80
2023/05/23 09:16:02;;;;;;;8.50;7.70;;;25.60;99.90;;;;;;5088485;28;20503;-86
2023/05/23 09:18:42;;;;;;;10.80;8.77;;;25.60;99.90;;;;;;5085827;28;20448;-86
2023/05/23 09:21:09;;;;;;;8.23;7.43;;;25.60;99.90;;;;;;5105383;28;20455;-80
2023/05/23 09:23:38;;;;;;;10.43;7.50;;;25.70;99.90;;;;;;5085082;28;20818;-79
2023/05/23 09:26:13;;;;;;;8.20;7.40;;;25.70;99.90;;;;;;5082140;28;21114;-79
2023/05/23 09:28:39;;;;;;;8.67;7.83;;;25.80;99.90;;;;;;5086027;28;20438;-86
2023/05/23 09:31:07;;;;;;;8.33;7.53;;;25.80;99.90;;;;;;5107209;28;20972;-80
2023/05/23 09:33:49;;;;;;;9.30;7.80;;;25.70;99.90;;;;;;5089062;28;20924;-86
2023/05/23 09:36:16;;;;;;;8.37;7.57;;;25.70;99.90;;;;;;5108627;28;20443;-86
2023/05/23 09:38:45;;;;;;;8.47;7.60;;;25.70;99.90;;;;;;5088305;28;20477;-79
2023/05/23 09:41:11;;;;;;;9.43;8.07;;;25.80;99.90;;;;;;5091137;28;20500;-87
2023/05/23 09:43:55;;;;;;;14.23;11.63;;;25.90;99.90;;;;;;5110615;28;20471;-85
2023/05/23 09:46:21;;;;;;;8.73;7.83;;;25.90;99.90;;;;;;5107551;28;20463;-87
2023/05/23 09:48:50;;;;;;;8.00;7.20;;;25.90;99.90;;;;;;5112181;28;20511;-80
2023/05/23 09:51:19;;;;;;;7.67;6.90;;;25.90;99.90;;;;;;5113331;28;21011;-80
2023/05/23 09:53:45;;;;;;;7.50;6.80;;;25.90;99.90;;;;;;5114915;27;20947;-80
2023/05/23 09:56:12;;;;;;;6.97;6.30;;;26.00;99.90;;;;;;5093693;28;20452;-80
2023/05/23 09:58:39;;;;;;;7.50;6.80;;;26.10;99.90;;;;;;5113434;28;20191;-86
2023/05/23 10:01:08;;;;;;;7.20;6.27;;;26.30;99.90;;;;;;5094400;28;20934;-86
2023/05/23 10:03:46;;;;;;;8.27;7.47;;;26.30;99.90;;;;;;5114162;28;21010;-86
2023/05/23 10:06:22;;;;;;;11.50;6.70;;;26.30;99.90;;;;;;5095109;28;20516;-83
2023/05/23 10:09:05;;;;;;;7.87;7.17;;;26.40;99.90;;;;;;5111273;28;20419;-80
2023/05/23 10:11:33;;;;;;;7.00;6.40;;;26.50;99.90;;;;;;5112978;28;20439;-80
2023/05/23 10:14:06;;;;;;;7.00;6.30;;;26.60;99.90;;;;;;5097349;28;20454;-80
2023/05/23 10:16:37;;;;;;;7.30;6.60;;;26.60;99.90;;;;;;5134671;27;20559;-80
2023/05/23 10:19:14;;;;;;;7.23;6.30;;;26.70;99.90;;;;;;5127330;27;20416;-79
2023/05/23 10:21:47;;;;;;;8.40;7.67;;;26.70;99.90;;;;;;5097018;28;20923;-86
2023/05/23 10:24:13;;;;;;;9.93;6.30;;;26.70;99.90;;;;;;5112576;28;20488;-80
2023/05/23 10:26:39;;;;;;;8.30;7.23;;;26.60;99.90;;;;;;5108215;27;20458;-86
2023/05/23 10:29:06;;;;;;;7.73;7.03;;;26.60;99.90;;;;;;5109392;27;20788;-80
2023/05/23 10:31:32;;;;;;;9.07;6.50;;;26.70;99.90;;;;;;5111829;28;20545;-86
2023/05/23 10:34:18;;;;;;;7.00;6.40;;;26.70;99.90;;;;;;5110572;28;20435;-86
2023/05/23 10:37:02;;;;;;;8.63;7.00;;;26.80;99.90;;;;;;5094586;28;20585;-86
2023/05/23 10:39:43;;;;;;;7.53;6.73;;;26.90;99.90;;;;;;5088780;28;20458;-81
2023/05/23 10:42:33;;;;;;;8.90;7.67;;;27.00;99.90;;;;;;5109757;27;21059;-81
2023/05/23 10:45:18;;;;;;;8.93;8.03;;;27.00;99.90;;;;;;5103662;28;20535;-79
2023/05/23 10:47:47;;;;;;;8.10;7.30;;;27.20;99.90;;;;;;5099898;28;20430;-84
2023/05/23 10:50:15;;;;;;;6.80;6.00;;;27.20;99.90;;;;;;5086532;28;20460;-84
2023/05/23 10:52:42;;;;;;;8.50;6.90;;;27.30;99.90;;;;;;5103201;28;20481;-85
2023/05/23 10:55:16;;;;;;;7.60;6.77;;;27.30;99.90;;;;;;5110265;27;20444;-87
2023/05/23 10:57:43;;;;;;;8.07;7.37;;;27.30;99.90;;;;;;5104509;27;20439;-84
2023/05/23 11:00:18;;;;;;;7.73;6.97;;;27.30;99.90;;;;;;5098250;28;20444;-78
2023/05/23 11:02:58;;;;;;;7.57;6.77;;;27.40;99.90;;;;;;5105388;27;20462;-84
2023/05/23 11:05:30;;;;;;;7.17;6.47;;;27.50;99.90;;;;;;5087516;28;20456;-85
2023/05/23 11:08:08;;;;;;;8.07;7.30;;;27.50;99.90;;;;;;5105704;28;20854;-79
2023/05/23 11:10:59;;;;;;;7.97;7.27;;;27.60;99.90;;;;;;5106552;27;20436;-83
2023/05/23 11:14:01;;;;;;;8.20;7.10;;;27.60;99.90;;;;;;5097273;28;20435;-83
2023/05/23 11:16:29;;;;;;;7.70;6.93;;;27.60;99.90;;;;;;5086872;28;20486;-79
2023/05/23 11:19:17;;;;;;;8.27;7.57;;;27.60;99.90;;;;;;5091653;28;21205;-80
2023/05/23 11:21:59;;;;;;;8.13;7.33;;;27.70;99.90;;;;;;5073826;28;21201;-80
2023/05/23 11:24:49;;;;;;;7.10;6.50;;;27.70;99.90;;;;;;5085167;28;20475;-85
2023/05/23 11:27:15;;;;;;;7.27;6.67;;;27.70;99.90;;;;;;5082749;28;20440;-81
2023/05/23 11:29:41;;;;;;;7.43;6.83;;;27.70;99.90;;;;;;5099027;28;20447;-86
2023/05/23 11:32:13;;;;;;;9.23;7.33;;;27.80;99.90;;;;;;5093769;27;20173;-81
2023/05/23 11:34:39;;;;;;;7.30;6.70;;;27.70;99.90;;;;;;5080112;27;20225;-86
2023/05/23 11:37:05;;;;;;;8.63;7.37;;;27.70;99.90;;;;;;5104821;27;21110;-86
2023/05/23 11:39:30;;;;;;;7.50;6.80;;;27.80;99.90;;;;;;5084620;28;20556;-84
2023/05/23 11:42:00;;;;;;;7.60;6.47;;;27.90;99.90;;;;;;5079097;28;20184;-81
2023/05/23 11:44:26;;;;;;;10.97;7.47;;;27.80;99.90;;;;;;5084917;28;20211;-81
2023/05/23 11:47:05;;;;;;;7.80;7.07;;;27.70;99.90;;;;;;5114564;27;20457;-86
2023/05/23 11:49:35;;;;;;;9.13;8.20;;;27.70;99.90;;;;;;5106866;27;20232;-80
2023/05/23 11:52:08;;;;;;;9.97;8.47;;;27.60;99.90;;;;;;5087062;28;20424;-85
2023/05/23 11:54:34;;;;;;;9.87;8.80;;;27.60;99.90;;;;;;5081633;28;20859;-87
2023/05/23 11:57:02;;;;;;;11.53;8.67;;;27.50;99.90;;;;;;5091667;28;20432;-86
2023/05/23 11:59:28;;;;;;;5.57;5.13;;;27.30;99.90;;;;;;5108146;28;20428;-85
2023/05/23 12:01:54;;;;;;;7.47;6.80;;;27.20;99.90;;;;;;5085411;28;20471;-80
2023/05/23 12:04:20;;;;;;;6.60;5.90;;;27.00;99.90;;;;;;5089557;28;21039;-79
2023/05/23 12:06:47;;;;;;;7.10;5.30;;;26.80;99.90;;;;;;5110092;27;20466;-81
2023/05/23 12:09:14;;;;;;;6.20;5.70;;;26.70;99.90;;;;;;5109019;27;20419;-84
2023/05/23 12:11:41;;;;;;;6.57;5.97;;;26.50;99.90;;;;;;5082925;28;21032;-84
2023/05/23 12:14:08;;;;;;;7.10;6.40;;;26.30;99.90;;;;;;5098449;27;20440;-84
2023/05/23 12:16:35;;;;;;;7.70;7.07;;;26.00;99.90;;;;;;5090280;28;20548;-84
2023/05/23 12:19:03;;;;;;;7.67;7.00;;;25.80;99.90;;;;;;5090754;28;20496;-84
2023/05/23 12:21:48;;;;;;;8.43;7.80;;;25.70;99.90;;;;;;5093078;28;20455;-83
2023/05/23 12:24:15;;;;;;;7.40;6.70;;;25.50;99.90;;;;;;5110124;27;20846;-84
2023/05/23 12:27:16;;;;;;;8.60;7.00;;;25.40;99.90;;;;;;5109986;28;20444;-79
2023/05/23 12:29:48;;;;;;;8.13;7.33;;;25.40;99.90;;;;;;5025054;28;20436;-83
2023/05/23 12:32:15;;;;;;;6.70;6.03;;;25.30;99.90;;;;;;5090890;28;20519;-84
2023/05/23 12:34:44;;;;;;;6.03;5.53;;;25.20;99.90;;;;;;5105572;28;20431;-83
2023/05/23 12:37:13;;;;;;;7.37;6.13;;;25.00;99.90;;;;;;5092080;28;20526;-84
2023/05/23 12:39:42;;;;;;;5.93;5.40;;;24.90;99.90;;;;;;5087334;28;20902;-84
2023/05/23 12:42:08;;;;;;;8.00;5.77;;;25.00;99.90;;;;;;5112635;28;20449;-83
2023/05/23 12:44:35;;;;;;;7.20;6.47;;;25.00;99.90;;;;;;5124625;28;20477;-84